Time;durP1;ratioP1;P1;durP2;ratioP2;P2;SDS_P1;SDS_P2;PMS_P1;PMS_P2;Temp;Humidity;BMP_temperature;BMP_pressure;BME280_temperature;BME280_humidity;BME280_pressure;Samples;Min_cycle;Max_cycle;Signal;HPM_P1;HPM_P2
2022/11/27 00:01:24;;;;;;;214.52;145.32;;;180.00;2252.80;;;;;;4972109;28;20023;-59
2022/11/27 00:03:50;;;;;;;216.63;147.55;;;179.90;2252.80;;;;;;4972007;28;20081;-59
2022/11/27 00:06:19;;;;;;;208.90;135.80;;;180.00;2252.80;;;;;;4971780;28;20046;-59
2022/11/27 00:08:45;;;;;;;215.63;133.32;;;179.80;2252.80;;;;;;4971774;28;20030;-59
2022/11/27 00:11:17;;;;;;;223.70;137.18;;;179.70;2252.80;;;;;;4971893;28;20359;-59
2022/11/27 00:13:42;;;;;;;224.25;141.73;;;179.90;2252.80;;;;;;4971964;28;20111;-59
2022/11/27 00:16:09;;;;;;;210.65;140.85;;;180.10;2252.80;;;;;;4971733;28;20051;-60
2022/11/27 00:18:35;;;;;;;215.95;138.63;;;204.80;2252.80;;;;;;4971788;28;20086;-59
2022/11/27 00:21:03;;;;;;;214.90;135.43;;;204.80;2252.80;;;;;;4971856;28;20037;-59
2022/11/27 00:23:29;;;;;;;216.25;137.93;;;204.90;2252.80;;;;;;4971504;28;20031;-61
2022/11/27 00:25:54;;;;;;;211.02;136.45;;;204.90;2252.80;;;;;;4971399;28;20140;-60
2022/11/27 00:28:20;;;;;;;237.73;155.57;;;204.80;2252.80;;;;;;4971754;28;20031;-64
2022/11/27 00:30:46;;;;;;;215.02;140.10;;;204.80;2252.80;;;;;;4971343;28;20489;-59
2022/11/27 00:33:12;;;;;;;217.85;145.65;;;180.10;2252.80;;;;;;4971648;28;20019;-59
2022/11/27 00:35:38;;;;;;;209.25;141.02;;;180.00;2252.80;;;;;;4971218;28;20027;-59
2022/11/27 00:38:04;;;;;;;214.40;143.00;;;180.00;2252.80;;;;;;4971625;28;20101;-59
2022/11/27 00:40:30;;;;;;;211.40;136.95;;;180.10;2252.80;;;;;;4970603;28;20038;-59
2022/11/27 00:42:56;;;;;;;216.27;136.32;;;204.80;2252.80;;;;;;4971197;28;20031;-59
2022/11/27 00:45:22;;;;;;;215.68;134.65;;;204.90;2252.80;;;;;;4971504;28;20105;-59
2022/11/27 00:47:47;;;;;;;202.95;131.77;;;204.90;2252.80;;;;;;4971197;28;20506;-59
2022/11/27 00:50:13;;;;;;;222.32;139.38;;;204.80;2252.80;;;;;;4971444;28;20034;-59
2022/11/27 00:52:39;;;;;;;202.43;132.57;;;204.90;2252.80;;;;;;4971125;28;20474;-59
2022/11/27 00:55:05;;;;;;;198.13;131.15;;;204.90;2252.80;;;;;;4970828;28;20089;-59
2022/11/27 00:57:31;;;;;;;184.15;118.15;;;205.00;2252.80;;;;;;4971080;28;20389;-59
2022/11/27 00:59:57;;;;;;;192.48;123.90;;;204.90;2252.80;;;;;;4971251;28;20109;-59
2022/11/27 01:02:22;;;;;;;187.70;123.68;;;204.90;2252.80;;;;;;4971409;28;20489;-59
2022/11/27 01:04:48;;;;;;;171.88;118.43;;;205.10;2252.80;;;;;;4971106;28;20400;-59
2022/11/27 01:07:14;;;;;;;184.13;125.78;;;205.10;2252.80;;;;;;4971431;28;20101;-59
2022/11/27 01:09:40;;;;;;;174.38;118.10;;;205.00;2252.80;;;;;;4971180;28;20022;-59
2022/11/27 01:12:06;;;;;;;191.55;124.38;;;205.00;2252.80;;;;;;4970945;28;20033;-60
2022/11/27 01:14:32;;;;;;;186.82;123.78;;;205.00;2252.80;;;;;;4971008;28;20022;-59
2022/11/27 01:16:58;;;;;;;184.90;121.72;;;205.00;2252.80;;;;;;4953095;28;20050;-58
2022/11/27 01:19:25;;;;;;;174.13;120.57;;;205.10;2252.80;;;;;;4971096;28;20535;-59
2022/11/27 01:21:51;;;;;;;177.45;124.72;;;205.10;2252.80;;;;;;4971213;28;20084;-58
2022/11/27 01:24:17;;;;;;;169.57;116.88;;;205.10;2252.80;;;;;;4970840;28;20106;-59
2022/11/27 01:26:43;;;;;;;189.07;130.52;;;205.10;2252.80;;;;;;4970991;28;20500;-59
2022/11/27 01:29:10;;;;;;;123.72;81.90;;;205.10;2252.80;;;;;;4970819;28;20030;-61
2022/11/27 01:31:36;;;;;;;118.38;78.40;;;205.20;2252.80;;;;;;4970944;28;20366;-59
2022/11/27 01:34:04;;;;;;;139.50;90.18;;;205.20;2252.80;;;;;;4970980;28;20107;-59
2022/11/27 01:36:31;;;;;;;122.72;73.82;;;205.20;2252.80;;;;;;4970807;28;20050;-59
2022/11/27 01:38:57;;;;;;;114.47;75.63;;;205.20;2252.80;;;;;;4970797;28;20027;-59
2022/11/27 01:41:35;;;;;;;95.28;66.80;;;205.20;2252.80;;;;;;4970936;28;20082;-59
2022/11/27 01:44:02;;;;;;;96.03;62.92;;;205.30;2252.80;;;;;;4970950;28;20027;-59
2022/11/27 01:46:39;;;;;;;96.93;65.15;;;205.30;2252.80;;;;;;4970574;28;20149;-59
2022/11/27 01:49:35;;;;;;;94.35;59.75;;;205.20;2252.80;;;;;;4970952;28;20034;-59
2022/11/27 01:52:18;;;;;;;79.05;52.80;;;205.10;2252.80;;;;;;4972137;28;20027;-59
2022/11/27 01:54:53;;;;;;;94.78;61.63;;;205.10;2252.80;;;;;;4974216;28;20037;-59
2022/11/27 01:57:23;;;;;;;95.95;62.15;;;205.20;2252.80;;;;;;4974111;28;20042;-59
2022/11/27 01:59:51;;;;;;;83.72;56.78;;;205.10;2252.80;;;;;;4974105;28;20436;-59
2022/11/27 02:02:17;;;;;;;94.57;60.30;;;205.20;2252.80;;;;;;4974085;28;20027;-59
2022/11/27 02:04:43;;;;;;;87.40;59.15;;;205.20;2252.80;;;;;;4974221;28;20027;-59
2022/11/27 02:07:08;;;;;;;77.50;51.40;;;205.30;2252.80;;;;;;4974064;28;20083;-62
2022/11/27 02:09:34;;;;;;;70.75;45.72;;;205.20;2252.80;;;;;;4974409;28;20027;-63
2022/11/27 02:12:29;;;;;;;64.32;47.20;;;205.30;2252.80;;;;;;4974016;28;20027;-59
2022/11/27 02:15:08;;;;;;;74.22;48.40;;;205.30;2252.80;;;;;;4974004;28;20125;-59
2022/11/27 02:17:55;;;;;;;83.47;54.50;;;205.30;2252.80;;;;;;4974296;28;20046;-59
2022/11/27 02:20:26;;;;;;;90.10;60.03;;;205.40;2252.80;;;;;;4974170;28;20050;-59
2022/11/27 02:23:19;;;;;;;131.20;86.72;;;205.30;2252.80;;;;;;4973979;28;20027;-59
2022/11/27 02:26:04;;;;;;;141.35;94.55;;;205.20;2252.80;;;;;;4973502;28;20027;-60
2022/11/27 02:29:09;;;;;;;147.00;90.15;;;205.20;2252.80;;;;;;4973483;28;20043;-59
2022/11/27 02:31:37;;;;;;;134.27;92.70;;;205.30;2252.80;;;;;;4973933;28;20027;-59
2022/11/27 02:34:21;;;;;;;147.93;94.82;;;205.60;2252.80;;;;;;4973783;28;20027;-59
2022/11/27 02:36:53;;;;;;;144.23;94.65;;;205.40;2252.80;;;;;;4973345;28;20081;-59
2022/11/27 02:39:26;;;;;;;149.85;98.07;;;205.30;2252.80;;;;;;4973422;28;20037;-59
2022/11/27 02:41:58;;;;;;;136.32;91.40;;;205.30;2252.80;;;;;;4973530;28;20031;-59
2022/11/27 02:44:28;;;;;;;136.15;92.20;;;205.40;2252.80;;;;;;4973385;28;20054;-60
2022/11/27 02:46:54;;;;;;;140.32;93.97;;;205.30;2252.80;;;;;;4973638;28;20492;-59
2022/11/27 02:49:22;;;;;;;132.43;90.90;;;205.20;2252.80;;;;;;4973637;28;20031;-59
2022/11/27 02:51:54;;;;;;;132.23;87.90;;;205.20;2252.80;;;;;;4973288;28;20035;-59
2022/11/27 02:54:25;;;;;;;130.90;91.25;;;205.30;2252.80;;;;;;4973154;28;20057;-59
2022/11/27 02:56:53;;;;;;;131.98;90.63;;;205.30;2252.80;;;;;;4972993;28;20058;-59
2022/11/27 02:59:20;;;;;;;149.13;99.30;;;205.20;2252.80;;;;;;4972911;28;20023;-59
2022/11/27 03:01:57;;;;;;;153.38;101.63;;;205.20;2252.80;;;;;;4973013;28;20106;-59
2022/11/27 03:04:34;;;;;;;178.52;115.47;;;205.30;2252.80;;;;;;4972536;28;20027;-59
2022/11/27 03:07:05;;;;;;;181.57;120.88;;;205.30;2252.80;;;;;;4972785;28;20080;-59
2022/11/27 03:09:45;;;;;;;190.07;129.30;;;205.20;2252.80;;;;;;4973078;28;20035;-59
2022/11/27 03:12:13;;;;;;;222.10;143.73;;;205.20;2252.80;;;;;;4973198;28;20452;-59
2022/11/27 03:14:40;;;;;;;220.75;143.00;;;205.10;2252.80;;;;;;4972738;28;20026;-60
2022/11/27 03:17:06;;;;;;;211.60;133.27;;;204.90;2252.80;;;;;;4972827;28;20362;-59
2022/11/27 03:20:08;;;;;;;192.18;129.23;;;205.10;2252.80;;;;;;4972893;28;20019;-59
2022/11/27 03:22:34;;;;;;;196.05;128.57;;;205.20;2252.80;;;;;;4973063;28;20026;-59
2022/11/27 03:24:59;;;;;;;197.00;132.35;;;205.20;2252.80;;;;;;4972407;28;20042;-59
2022/11/27 03:27:32;;;;;;;197.20;129.20;;;205.20;2252.80;;;;;;4972616;28;20077;-59
2022/11/27 03:30:00;;;;;;;184.07;121.68;;;205.30;2252.80;;;;;;4972456;28;20034;-60
2022/11/27 03:32:29;;;;;;;182.93;123.13;;;205.30;2252.80;;;;;;4972370;28;20039;-59
2022/11/27 03:34:55;;;;;;;194.70;126.10;;;205.30;2252.80;;;;;;4972569;28;20030;-65
2022/11/27 03:37:22;;;;;;;193.77;125.13;;;205.40;2252.80;;;;;;4972673;28;20045;-59
2022/11/27 03:39:48;;;;;;;185.00;120.90;;;205.30;2252.80;;;;;;4972451;28;20038;-60
2022/11/27 03:42:49;;;;;;;171.27;109.32;;;205.20;2252.80;;;;;;4972658;28;20033;-63
2022/11/27 03:45:33;;;;;;;197.05;125.95;;;205.30;2252.80;;;;;;4894096;29;20535;-59
2022/11/27 03:48:13;;;;;;;201.20;130.13;;;205.20;2252.80;;;;;;4893851;29;20033;-59
2022/11/27 03:50:58;;;;;;;213.18;131.77;;;204.80;2252.80;;;;;;4893816;29;20120;-61
2022/11/27 03:53:30;;;;;;;187.10;127.13;;;204.80;2252.80;;;;;;4893872;29;20114;-59
2022/11/27 03:56:08;;;;;;;180.77;115.05;;;204.90;2252.80;;;;;;4893369;29;20077;-59
2022/11/27 03:58:37;;;;;;;188.60;120.95;;;204.80;2252.80;;;;;;4893899;29;20036;-59
2022/11/27 04:01:06;;;;;;;170.18;111.47;;;205.00;2252.80;;;;;;4893794;29;20051;-59
2022/11/27 04:03:32;;;;;;;161.88;114.25;;;205.00;2252.80;;;;;;4893736;29;20097;-59
2022/11/27 04:05:58;;;;;;;189.57;117.43;;;205.00;2252.80;;;;;;4893391;29;20466;-59
2022/11/27 04:08:24;;;;;;;169.70;114.65;;;204.80;2252.80;;;;;;4893619;29;20033;-62
2022/11/27 04:10:50;;;;;;;180.63;110.57;;;204.90;2252.80;;;;;;4893384;29;20036;-59
2022/11/27 04:13:16;;;;;;;163.30;108.97;;;205.00;2252.80;;;;;;4893331;29;20104;-60
2022/11/27 04:15:41;;;;;;;203.80;131.45;;;205.10;2252.80;;;;;;4893401;29;20025;-59
2022/11/27 04:18:07;;;;;;;162.63;107.45;;;205.10;2252.80;;;;;;4896088;29;20040;-59
2022/11/27 04:20:33;;;;;;;179.95;118.72;;;205.10;2252.80;;;;;;4952657;28;20082;-59
2022/11/27 04:22:59;;;;;;;185.25;126.10;;;205.10;2252.80;;;;;;4952159;28;20363;-59
2022/11/27 04:25:25;;;;;;;174.60;115.72;;;205.20;2252.80;;;;;;4952455;28;20038;-58
2022/11/27 04:27:51;;;;;;;165.90;114.03;;;205.40;2252.80;;;;;;4952655;28;20482;-59
2022/11/27 04:30:17;;;;;;;152.55;106.25;;;205.40;2252.80;;;;;;4952048;28;20371;-59
2022/11/27 04:32:43;;;;;;;157.98;107.28;;;205.30;2252.80;;;;;;4952408;28;20166;-63
2022/11/27 04:35:08;;;;;;;157.23;106.40;;;205.40;2252.80;;;;;;4952280;28;20050;-59
2022/11/27 04:37:34;;;;;;;165.73;111.28;;;205.40;2252.80;;;;;;4952327;28;20035;-59
2022/11/27 04:40:00;;;;;;;168.80;111.50;;;205.40;2252.80;;;;;;4951858;28;20039;-59
2022/11/27 04:42:26;;;;;;;174.98;117.25;;;205.40;2252.80;;;;;;4952240;28;20035;-59
2022/11/27 04:44:52;;;;;;;168.02;113.28;;;205.20;2252.80;;;;;;4952218;28;20032;-63
2022/11/27 04:47:17;;;;;;;185.48;123.88;;;205.20;2252.80;;;;;;4950342;29;20094;-59
2022/11/27 04:49:43;;;;;;;182.68;125.75;;;204.80;2252.80;;;;;;4952131;28;20102;-59
2022/11/27 04:52:12;;;;;;;173.63;121.65;;;180.00;2252.80;;;;;;4951964;28;20027;-63
2022/11/27 04:54:38;;;;;;;184.80;120.80;;;180.00;2252.80;;;;;;4951828;28;20027;-59
2022/11/27 04:57:04;;;;;;;189.75;120.75;;;179.80;2252.80;;;;;;4970656;28;20065;-58
2022/11/27 04:59:29;;;;;;;189.20;121.63;;;179.70;2252.80;;;;;;4971109;28;20027;-59
2022/11/27 05:01:56;;;;;;;176.48;118.40;;;179.60;2252.80;;;;;;4971280;28;20505;-59
2022/11/27 05:04:22;;;;;;;176.98;122.97;;;179.50;2252.80;;;;;;4971414;28;20049;-58
2022/11/27 05:06:48;;;;;;;183.65;121.22;;;179.50;2252.80;;;;;;4970864;28;20484;-58
2022/11/27 05:09:16;;;;;;;177.50;117.95;;;179.60;2252.80;;;;;;4971203;28;20023;-62
2022/11/27 05:11:41;;;;;;;187.13;121.60;;;179.50;2252.80;;;;;;4971176;28;20026;-59
2022/11/27 05:14:21;;;;;;;147.63;102.85;;;179.60;2252.80;;;;;;4971144;28;20030;-58
2022/11/27 05:16:51;;;;;;;133.73;93.68;;;179.70;2252.80;;;;;;4970904;28;20043;-59
2022/11/27 05:19:19;;;;;;;112.63;78.18;;;179.80;2252.80;;;;;;4970960;28;20023;-60
2022/11/27 05:21:47;;;;;;;101.65;72.97;;;179.70;2252.80;;;;;;4971042;28;20023;-58
2022/11/27 05:24:17;;;;;;;103.03;67.15;;;179.70;2252.80;;;;;;4970832;28;20034;-63
2022/11/27 05:26:43;;;;;;;93.55;63.10;;;180.10;2252.80;;;;;;4972152;28;20035;-62
2022/11/27 05:29:10;;;;;;;88.82;61.40;;;179.60;2252.80;;;;;;4974715;28;20034;-61
2022/11/27 05:31:36;;;;;;;89.53;60.42;;;179.90;2252.80;;;;;;4974797;28;20031;-58
2022/11/27 05:34:02;;;;;;;84.95;59.55;;;179.80;2252.80;;;;;;4974780;28;20114;-58
2022/11/27 05:36:29;;;;;;;85.78;55.40;;;180.00;2252.80;;;;;;4974445;28;20042;-58
2022/11/27 05:38:55;;;;;;;73.07;49.95;;;180.10;2252.80;;;;;;4975029;28;20102;-57
2022/11/27 05:41:21;;;;;;;73.18;49.88;;;204.90;2252.80;;;;;;4974811;28;20055;-58
2022/11/27 05:43:46;;;;;;;75.90;54.45;;;204.90;2252.80;;;;;;4974424;28;20031;-58
2022/11/27 05:46:14;;;;;;;78.55;51.97;;;205.00;2252.80;;;;;;4974561;28;20027;-61
2022/11/27 05:48:40;;;;;;;83.97;55.90;;;205.00;2252.80;;;;;;4974508;28;20034;-58
2022/11/27 05:51:07;;;;;;;82.10;57.28;;;205.20;2252.80;;;;;;4974475;28;20086;-58
2022/11/27 05:53:33;;;;;;;86.80;62.42;;;205.10;2252.80;;;;;;4974368;28;20026;-61
2022/11/27 05:56:07;;;;;;;89.50;62.22;;;205.10;2252.80;;;;;;4973857;28;20066;-57
2022/11/27 05:58:33;;;;;;;84.30;60.50;;;205.10;2252.80;;;;;;4974414;28;20031;-58
2022/11/27 06:00:59;;;;;;;92.57;66.13;;;205.10;2252.80;;;;;;4974000;28;20482;-57
2022/11/27 06:03:26;;;;;;;82.93;60.08;;;205.20;2252.80;;;;;;4974127;28;20069;-59
2022/11/27 06:05:52;;;;;;;80.10;56.08;;;205.20;2252.80;;;;;;4974191;28;20043;-58
2022/11/27 06:08:18;;;;;;;90.50;59.85;;;205.10;2252.80;;;;;;4974171;28;20081;-58
2022/11/27 06:10:45;;;;;;;78.95;57.72;;;205.10;2252.80;;;;;;4974344;28;20026;-57
2022/11/27 06:13:11;;;;;;;79.20;55.75;;;205.20;2252.80;;;;;;4974265;28;20069;-61
2022/11/27 06:15:38;;;;;;;89.47;62.28;;;205.20;2252.80;;;;;;4973840;28;20051;-57
2022/11/27 06:18:04;;;;;;;90.88;64.57;;;205.20;2252.80;;;;;;4974162;28;20035;-57
2022/11/27 06:20:29;;;;;;;89.60;60.78;;;205.30;2252.80;;;;;;4973783;28;20033;-58
2022/11/27 06:22:55;;;;;;;97.65;65.53;;;205.20;2252.80;;;;;;4973648;28;20039;-59
2022/11/27 06:25:21;;;;;;;102.05;74.03;;;205.20;2252.80;;;;;;4973726;28;20497;-58
2022/11/27 06:27:47;;;;;;;115.97;78.63;;;205.00;2252.80;;;;;;4973601;28;20249;-58
2022/11/27 06:30:13;;;;;;;116.10;77.00;;;204.90;2252.80;;;;;;4973711;28;20054;-58
2022/11/27 06:32:39;;;;;;;106.60;72.93;;;204.90;2252.80;;;;;;4973624;28;20050;-58
2022/11/27 06:35:05;;;;;;;99.45;68.82;;;205.00;2252.80;;;;;;4974013;28;20600;-58
2022/11/27 06:37:31;;;;;;;98.35;68.00;;;205.10;2252.80;;;;;;4973109;28;20425;-58
2022/11/27 06:39:56;;;;;;;89.13;56.92;;;205.20;2252.80;;;;;;4972538;28;20118;-58
2022/11/27 06:42:22;;;;;;;79.88;59.95;;;205.20;2252.80;;;;;;4973547;28;20424;-58
2022/11/27 06:44:48;;;;;;;72.80;46.97;;;205.30;2252.80;;;;;;4973298;28;20067;-59
2022/11/27 06:47:13;;;;;;;72.75;49.38;;;205.40;2252.80;;;;;;4973512;28;20030;-62
2022/11/27 06:49:39;;;;;;;70.95;47.13;;;205.50;2252.80;;;;;;4973111;28;20062;-59
2022/11/27 06:52:05;;;;;;;69.75;47.88;;;205.50;2252.80;;;;;;4973504;28;20023;-58
2022/11/27 06:54:30;;;;;;;77.22;49.42;;;205.50;2252.80;;;;;;4973369;28;20030;-58
2022/11/27 06:56:57;;;;;;;86.30;58.92;;;205.60;2252.80;;;;;;4972994;28;20082;-58
2022/11/27 06:59:23;;;;;;;109.93;86.32;;;205.40;2252.80;;;;;;4973263;28;20023;-62
2022/11/27 07:01:49;;;;;;;259.90;209.32;;;205.40;2252.80;;;;;;4973096;28;20038;-58
2022/11/27 07:04:15;;;;;;;178.73;159.50;;;205.30;2252.80;;;;;;4973216;28;20386;-63
2022/11/27 07:06:41;;;;;;;93.30;69.32;;;205.30;2252.80;;;;;;4973104;28;20400;-58
2022/11/27 07:09:08;;;;;;;65.50;52.20;;;205.20;2252.80;;;;;;4972945;28;20645;-57
2022/11/27 07:11:35;;;;;;;99.32;67.82;;;205.30;2252.80;;;;;;4973398;28;20066;-58
2022/11/27 07:14:02;;;;;;;163.55;105.75;;;205.30;2252.80;;;;;;4955635;28;20031;-60
2022/11/27 07:16:31;;;;;;;260.85;155.13;;;205.30;2252.80;;;;;;4972711;28;20121;-58
2022/11/27 07:19:02;;;;;;;403.25;263.48;;;205.20;2252.80;;;;;;4972668;28;20019;-64
2022/11/27 07:21:28;;;;;;;251.35;169.55;;;205.20;2252.80;;;;;;4972667;28;20031;-59
2022/11/27 07:23:55;;;;;;;81.28;56.75;;;205.20;2252.80;;;;;;4972774;28;20030;-58
2022/11/27 07:26:23;;;;;;;68.10;46.25;;;205.20;2252.80;;;;;;4972735;28;20062;-58
2022/11/27 07:28:49;;;;;;;61.10;45.40;;;205.20;2252.80;;;;;;4972614;28;20031;-62
2022/11/27 07:31:17;;;;;;;57.75;41.63;;;205.30;2252.80;;;;;;4972571;28;20173;-62
2022/11/27 07:33:43;;;;;;;64.13;46.42;;;205.40;2252.80;;;;;;4972642;28;20379;-58
2022/11/27 07:36:18;;;;;;;66.55;51.70;;;205.30;2252.80;;;;;;4972210;28;20037;-60
2022/11/27 07:38:45;;;;;;;63.33;49.35;;;205.40;2252.80;;;;;;4972668;28;20023;-58
2022/11/27 07:41:11;;;;;;;81.28;57.45;;;205.40;2252.80;;;;;;4972527;28;20470;-63
2022/11/27 07:43:37;;;;;;;101.45;66.72;;;205.40;2252.80;;;;;;4972460;28;20027;-58
2022/11/27 07:46:17;;;;;;;148.05;96.68;;;205.40;2252.80;;;;;;4972386;28;20090;-58
2022/11/27 07:48:44;;;;;;;85.47;60.72;;;205.40;2252.80;;;;;;4972229;28;20026;-58
2022/11/27 07:51:12;;;;;;;92.63;62.83;;;205.40;2252.80;;;;;;4971685;28;20030;-63
2022/11/27 07:53:41;;;;;;;91.25;59.90;;;205.30;2252.80;;;;;;4972021;28;20041;-58
2022/11/27 07:56:09;;;;;;;97.38;68.18;;;205.30;2252.80;;;;;;4971926;28;20051;-57
2022/11/27 07:58:35;;;;;;;75.70;53.83;;;205.40;2252.80;;;;;;4972456;28;20030;-58
2022/11/27 08:01:04;;;;;;;65.68;43.15;;;205.40;2252.80;;;;;;4971406;28;20045;-57
2022/11/27 08:03:30;;;;;;;72.68;52.28;;;205.60;2252.80;;;;;;4971197;28;20038;-58
2022/11/27 08:05:56;;;;;;;57.33;40.20;;;205.70;2252.80;;;;;;4971765;28;20033;-58
2022/11/27 08:08:21;;;;;;;58.70;40.60;;;205.70;2252.80;;;;;;4971917;28;20022;-58
2022/11/27 08:10:47;;;;;;;87.20;77.80;;;230.40;2252.80;;;;;;4971907;28;20072;-58
2022/11/27 08:13:13;;;;;;;71.95;50.45;;;205.70;2252.80;;;;;;4971964;28;20026;-63
2022/11/27 08:15:38;;;;;;;61.45;45.60;;;230.50;2252.80;;;;;;4971694;28;20019;-58
2022/11/27 08:18:04;;;;;;;52.30;33.67;;;230.50;2252.80;;;;;;4971966;28;20039;-58
2022/11/27 08:20:30;;;;;;;134.63;99.68;;;230.50;2252.80;;;;;;4971553;28;20026;-64
2022/11/27 08:22:55;;;;;;;67.43;43.30;;;230.50;2252.80;;;;;;4971621;28;20034;-59
2022/11/27 08:25:21;;;;;;;64.88;47.15;;;230.50;2252.80;;;;;;4971641;28;20037;-58
2022/11/27 08:27:47;;;;;;;54.53;39.05;;;230.60;2252.80;;;;;;4971535;28;20466;-64
2022/11/27 08:30:14;;;;;;;63.13;43.75;;;230.70;2252.80;;;;;;4971628;28;20022;-65
2022/11/27 08:32:41;;;;;;;82.53;54.15;;;230.80;2252.80;;;;;;4971581;28;20019;-58
2022/11/27 08:35:08;;;;;;;62.80;44.22;;;230.90;2252.80;;;;;;4971471;28;20058;-58
2022/11/27 08:37:34;;;;;;;215.63;150.98;;;230.80;2252.80;;;;;;4971982;28;20046;-58
2022/11/27 08:40:00;;;;;;;227.57;160.20;;;230.60;2252.80;;;;;;4971290;28;20022;-60
2022/11/27 08:42:26;;;;;;;207.13;148.10;;;230.60;2252.80;;;;;;4971305;28;20037;-60
2022/11/27 08:44:51;;;;;;;148.20;106.05;;;230.50;2252.80;;;;;;4971433;28;20470;-57
2022/11/27 08:47:17;;;;;;;125.97;86.95;;;230.50;2252.80;;;;;;4971245;28;20400;-58
2022/11/27 08:49:43;;;;;;;115.13;72.97;;;230.50;2252.80;;;;;;4971356;28;20448;-58
2022/11/27 08:52:11;;;;;;;112.80;72.47;;;230.50;2252.80;;;;;;4971161;28;20031;-60
2022/11/27 08:54:36;;;;;;;227.85;161.05;;;230.50;2252.80;;;;;;4971161;28;20042;-58
2022/11/27 08:57:03;;;;;;;190.80;136.98;;;230.50;2252.80;;;;;;4971162;28;20055;-58
2022/11/27 08:59:28;;;;;;;208.75;147.27;;;230.40;2252.80;;;;;;4971207;28;20385;-58
2022/11/27 09:01:54;;;;;;;220.10;155.77;;;205.60;2252.80;;;;;;4970664;28;20026;-58
2022/11/27 09:04:19;;;;;;;223.88;153.35;;;205.70;2252.80;;;;;;4971032;28;20062;-58
2022/11/27 09:06:47;;;;;;;204.48;148.85;;;205.60;2252.80;;;;;;4970977;28;20041;-59
2022/11/27 09:09:13;;;;;;;205.20;147.98;;;205.60;2252.80;;;;;;4971226;28;20019;-58
2022/11/27 09:11:40;;;;;;;199.13;147.15;;;205.70;2252.80;;;;;;4971148;28;20031;-59
2022/11/27 09:14:07;;;;;;;222.98;159.00;;;230.40;2252.80;;;;;;4970995;28;20063;-58
2022/11/27 09:16:34;;;;;;;237.57;170.82;;;205.60;2252.80;;;;;;4971196;28;20114;-59
2022/11/27 09:19:00;;;;;;;175.68;121.95;;;205.60;2252.80;;;;;;4970886;28;20034;-65
2022/11/27 09:21:29;;;;;;;206.77;138.20;;;205.60;2252.80;;;;;;4970827;28;20400;-59
2022/11/27 09:23:56;;;;;;;198.57;138.90;;;205.50;2252.80;;;;;;4971253;28;20126;-59
2022/11/27 09:26:24;;;;;;;175.20;133.45;;;205.60;2252.80;;;;;;4970971;28;20035;-59
2022/11/27 09:28:50;;;;;;;161.88;109.70;;;205.50;2252.80;;;;;;4970817;28;20035;-65
2022/11/27 09:31:16;;;;;;;153.73;103.63;;;205.40;2252.80;;;;;;4970696;28;20041;-59
2022/11/27 09:33:43;;;;;;;176.48;116.80;;;205.50;2252.80;;;;;;4970986;28;20023;-58
2022/11/27 09:36:29;;;;;;;196.15;130.50;;;205.40;2252.80;;;;;;4970677;28;20466;-61
2022/11/27 09:38:54;;;;;;;155.55;102.43;;;205.60;2252.80;;;;;;4970673;28;20027;-59
2022/11/27 09:41:34;;;;;;;157.50;107.28;;;230.40;2252.80;;;;;;4970502;28;20022;-59
2022/11/27 09:44:05;;;;;;;179.77;123.22;;;205.60;2252.80;;;;;;4970875;28;20117;-58
2022/11/27 09:46:36;;;;;;;207.07;137.98;;;205.60;2252.80;;;;;;4970697;28;20109;-58
2022/11/27 09:49:07;;;;;;;220.30;146.00;;;205.70;2252.80;;;;;;4970964;28;20117;-58
2022/11/27 09:51:55;;;;;;;189.45;126.28;;;205.70;2252.80;;;;;;4970915;28;20079;-58
2022/11/27 09:54:39;;;;;;;304.08;183.20;;;205.60;2252.80;;;;;;4970710;28;20038;-58
2022/11/27 09:57:09;;;;;;;215.57;135.35;;;205.40;2252.80;;;;;;4970568;28;20047;-58
2022/11/27 09:59:42;;;;;;;218.60;147.32;;;205.30;2252.80;;;;;;4970693;28;20027;-58
2022/11/27 10:02:27;;;;;;;244.20;156.57;;;205.20;2252.80;;;;;;4970839;28;20106;-58
2022/11/27 10:04:53;;;;;;;235.27;155.63;;;205.20;2252.80;;;;;;4970803;28;20023;-58
2022/11/27 10:08:00;;;;;;;247.48;160.25;;;205.30;2252.80;;;;;;4970481;28;20045;-59
2022/11/27 10:10:40;;;;;;;305.42;190.85;;;205.50;2252.80;;;;;;4968077;28;20104;-60
2022/11/27 10:13:14;;;;;;;238.32;157.00;;;205.60;2252.80;;;;;;4972013;28;20105;-59
2022/11/27 10:16:16;;;;;;;262.40;162.75;;;205.70;2252.80;;;;;;4973698;28;20023;-59
2022/11/27 10:18:47;;;;;;;215.10;140.48;;;205.70;2252.80;;;;;;4895509;29;20044;-58
2022/11/27 10:21:33;;;;;;;223.65;150.20;;;230.50;2252.80;;;;;;4895637;29;20129;-58
2022/11/27 10:24:19;;;;;;;252.10;152.82;;;205.70;2252.80;;;;;;4895290;29;20033;-59
2022/11/27 10:26:48;;;;;;;202.82;125.22;;;205.70;2252.80;;;;;;4895290;29;20120;-58
2022/11/27 10:29:44;;;;;;;219.98;139.80;;;205.70;2252.80;;;;;;4895418;29;20060;-58
2022/11/27 10:32:19;;;;;;;210.60;134.55;;;205.70;2252.80;;;;;;4894334;29;20043;-59
2022/11/27 10:34:52;;;;;;;208.35;132.25;;;205.60;2252.80;;;;;;4895307;29;20043;-58
2022/11/27 10:37:27;;;;;;;191.70;120.80;;;205.70;2252.80;;;;;;4895011;29;20075;-58
2022/11/27 10:39:59;;;;;;;181.20;111.85;;;230.40;2252.80;;;;;;4895333;29;20036;-58
2022/11/27 10:42:39;;;;;;;166.30;102.93;;;230.50;2252.80;;;;;;4895208;29;20087;-66
2022/11/27 10:45:38;;;;;;;187.98;112.65;;;230.60;2252.80;;;;;;4895354;29;20522;-58
2022/11/27 10:48:04;;;;;;;164.13;104.15;;;230.80;2252.80;;;;;;4895107;29;20044;-51
2022/11/27 10:50:30;;;;;;;187.23;114.43;;;230.80;2252.80;;;;;;4894687;29;20491;-61
2022/11/27 10:53:01;;;;;;;187.57;112.35;;;230.70;2252.80;;;;;;4894853;29;20067;-54
2022/11/27 10:56:05;;;;;;;191.55;110.68;;;230.80;2252.80;;;;;;4945344;28;20074;-53
2022/11/27 10:58:34;;;;;;;160.60;94.68;;;230.60;2252.80;;;;;;4969579;28;20089;-52
2022/11/27 11:01:05;;;;;;;152.40;93.30;;;205.70;2252.80;;;;;;4973180;28;20114;-53
2022/11/27 11:03:32;;;;;;;167.38;94.47;;;205.70;2252.80;;;;;;4973382;28;20093;-52
2022/11/27 11:06:04;;;;;;;156.30;94.63;;;205.60;2252.80;;;;;;4972892;28;20031;-52
2022/11/27 11:08:32;;;;;;;148.27;87.93;;;205.70;2252.80;;;;;;4972853;28;20037;-61
2022/11/27 11:11:01;;;;;;;150.48;88.70;;;230.50;2252.80;;;;;;4972800;28;20034;-52
2022/11/27 11:13:40;;;;;;;164.32;96.10;;;205.70;2252.80;;;;;;4971318;28;20042;-62
2022/11/27 11:16:30;;;;;;;164.82;98.82;;;205.70;2252.80;;;;;;4970882;28;20035;-51
2022/11/27 11:18:57;;;;;;;164.75;97.68;;;230.40;2252.80;;;;;;4971131;28;20098;-58
2022/11/27 11:21:31;;;;;;;152.10;91.75;;;230.40;2252.80;;;;;;4971554;28;20386;-59
2022/11/27 11:24:21;;;;;;;156.70;92.32;;;230.70;2252.80;;;;;;4970663;28;20019;-53
2022/11/27 11:26:51;;;;;;;158.13;94.10;;;230.50;2252.80;;;;;;4969939;28;20047;-52
2022/11/27 11:29:41;;;;;;;163.68;102.97;;;230.70;2252.80;;;;;;4953815;28;20031;-59
2022/11/27 11:32:09;;;;;;;164.00;96.88;;;230.60;2252.80;;;;;;4971181;28;20031;-63
2022/11/27 11:34:43;;;;;;;157.70;84.70;;;230.70;2252.80;;;;;;4971266;28;20030;-53
2022/11/27 11:37:31;;;;;;;146.93;89.47;;;230.90;2252.80;;;;;;4970884;28;20039;-59
2022/11/27 11:40:07;;;;;;;132.15;76.85;;;231.00;2252.80;;;;;;4970500;28;20129;-52
2022/11/27 11:42:35;;;;;;;150.10;86.47;;;230.60;2252.80;;;;;;4971008;28;20030;-63
2022/11/27 11:45:13;;;;;;;140.00;84.95;;;230.40;2252.80;;;;;;4970833;28;20027;-64
2022/11/27 11:47:46;;;;;;;136.73;79.70;;;230.90;2252.80;;;;;;4970655;28;20026;-53
2022/11/27 11:50:15;;;;;;;182.40;102.13;;;230.90;2252.80;;;;;;4970979;28;20474;-60
2022/11/27 11:53:31;;;;;;;157.52;87.72;;;230.90;2252.80;;;;;;4970317;28;20122;-55
2022/11/27 11:56:32;;;;;;;154.70;91.30;;;230.90;2252.80;;;;;;4891458;29;20405;-61
2022/11/27 11:59:10;;;;;;;135.48;70.72;;;230.90;2252.80;;;;;;4891849;29;20052;-54
2022/11/27 12:01:42;;;;;;;146.68;86.75;;;230.90;2252.80;;;;;;4892097;29;20032;-55
2022/11/27 12:04:22;;;;;;;138.63;82.47;;;231.00;2252.80;;;;;;4891826;29;20037;-53